Time;durP1;ratioP1;P1;durP2;ratioP2;P2;SDS_P1;SDS_P2;PMS_P1;PMS_P2;Temp;Humidity;BMP_temperature;BMP_pressure;BME280_temperature;BME280_humidity;BME280_pressure;Samples;Min_cycle;Max_cycle;Signal;HPM_P1;HPM_P2
2022/04/10 00:00:22;;;;;;;3.65;2.55;;;;;;;6.41;60.27;99265.22;4483847;32;34564;-68
2022/04/10 00:02:50;;;;;;;3.67;2.65;;;;;;;6.30;61.41;99264.16;4483760;32;33526;-69
2022/04/10 00:05:17;;;;;;;4.93;2.70;;;;;;;6.45;61.11;99263.69;4483885;32;33703;-69
2022/04/10 00:07:45;;;;;;;3.95;2.80;;;;;;;6.91;60.17;99251.25;4483853;32;34219;-70
2022/04/10 00:10:12;;;;;;;4.82;3.17;;;;;;;6.70;60.58;99251.88;4484245;32;33823;-69
2022/04/10 00:12:40;;;;;;;4.37;2.90;;;;;;;6.63;61.52;99243.06;4483545;32;33260;-70
2022/04/10 00:15:08;;;;;;;4.18;3.17;;;;;;;6.27;63.08;99251.16;4483674;32;34345;-66
2022/04/10 00:17:35;;;;;;;4.95;3.17;;;;;;;6.58;62.36;99247.28;4483947;32;34177;-68
2022/04/10 00:20:04;;;;;;;4.90;3.40;;;;;;;6.25;62.85;99236.28;4483951;32;33622;-69
2022/04/10 00:22:31;;;;;;;4.75;2.92;;;;;;;6.27;62.20;99247.66;4483517;32;33571;-69
2022/04/10 00:24:59;;;;;;;3.75;2.65;;;;;;;6.51;61.62;99237.69;4469607;32;33889;-69
2022/04/10 00:27:26;;;;;;;5.00;3.05;;;;;;;6.27;61.58;99240.38;4484562;32;34247;-68
2022/04/10 00:29:54;;;;;;;4.22;2.97;;;;;;;5.96;62.56;99246.87;4485552;32;34682;-67
2022/04/10 00:32:28;;;;;;;3.65;2.72;;;;;;;5.96;62.81;99252.25;4485543;32;34198;-69
2022/04/10 00:34:56;;;;;;;4.97;2.72;;;;;;;5.58;64.06;99249.91;4485739;32;33913;-68
2022/04/10 00:37:24;;;;;;;4.03;2.67;;;;;;;6.01;63.03;99254.28;4485556;32;34179;-66
2022/04/10 00:39:52;;;;;;;3.87;2.67;;;;;;;6.22;62.57;99252.91;4485678;32;34179;-68
2022/04/10 00:42:20;;;;;;;3.90;2.75;;;;;;;5.84;63.39;99259.47;4485050;32;33598;-67
2022/04/10 00:44:48;;;;;;;3.90;3.08;;;;;;;5.87;64.21;99251.75;4483095;32;33403;-69
2022/04/10 00:47:15;;;;;;;4.43;2.92;;;;;;;5.64;65.01;99260.59;4485601;32;33969;-70
2022/04/10 00:49:43;;;;;;;4.32;3.12;;;;;;;5.77;64.35;99254.19;4477060;32;33912;-67
2022/04/10 00:52:10;;;;;;;4.80;2.95;;;;;;;6.27;62.93;99256.53;4476451;32;33548;-70
2022/04/10 00:54:38;;;;;;;4.05;3.08;;;;;;;6.08;63.74;99258.50;4456549;32;34612;-67
2022/04/10 00:57:06;;;;;;;3.75;2.90;;;;;;;6.05;63.74;99264.38;4469614;32;34967;-69
2022/04/10 00:59:34;;;;;;;4.40;2.78;;;;;;;5.58;64.91;99272.25;4469680;32;34403;-67
2022/04/10 01:02:01;;;;;;;4.10;3.05;;;;;;;6.03;64.26;99277.25;4469449;32;33580;-67
2022/04/10 01:04:39;;;;;;;4.18;3.10;;;;;;;5.89;64.58;99289.22;4471642;32;33660;-64
2022/04/10 01:07:07;;;;;;;4.10;3.12;;;;;;;6.22;63.50;99285.22;4485028;32;34112;-68
2022/04/10 01:09:35;;;;;;;4.60;3.03;;;;;;;5.80;64.56;99294.09;4484967;32;33888;-68
2022/04/10 01:12:03;;;;;;;4.57;3.10;;;;;;;5.25;66.57;99295.03;4467755;32;33904;-66
2022/04/10 01:14:31;;;;;;;5.12;3.47;;;;;;;5.44;65.87;99298.53;4475862;32;33840;-70
2022/04/10 01:16:59;;;;;;;4.30;3.12;;;;;;;4.89;67.87;99299.34;4469336;32;34158;-65
2022/04/10 01:19:28;;;;;;;5.28;3.35;;;;;;;5.20;67.32;99302.94;4476395;32;34464;-65
2022/04/10 01:21:59;;;;;;;4.53;2.97;;;;;;;5.57;65.87;99310.97;4475281;32;34283;-68
2022/04/10 01:24:28;;;;;;;4.53;3.50;;;;;;;5.37;66.87;99307.72;4476127;32;33735;-66
2022/04/10 01:26:55;;;;;;;5.07;3.55;;;;;;;5.52;66.30;99306.28;4469563;32;34931;-68
2022/04/10 01:29:27;;;;;;;5.15;3.30;;;;;;;5.49;65.91;99298.66;4476059;32;34591;-65
2022/04/10 01:31:55;;;;;;;4.93;3.20;;;;;;;5.52;65.98;99306.28;4474960;32;34057;-65
2022/04/10 01:34:23;;;;;;;4.90;3.20;;;;;;;5.19;67.08;99313.94;4476794;32;33531;-65
2022/04/10 01:36:51;;;;;;;4.93;3.25;;;;;;;5.48;65.70;99312.34;4476817;32;34165;-70
2022/04/10 01:39:19;;;;;;;4.12;2.83;;;;;;;5.72;64.57;99321.34;4475259;32;34421;-64
2022/04/10 01:41:47;;;;;;;4.68;3.20;;;;;;;5.48;65.73;99323.09;4474360;32;33504;-69
2022/04/10 01:44:15;;;;;;;4.18;2.90;;;;;;;4.83;67.07;99318.22;4469613;32;34076;-67
2022/04/10 01:46:42;;;;;;;5.18;3.20;;;;;;;5.04;67.30;99325.06;4469595;32;34969;-67
2022/04/10 01:49:11;;;;;;;4.97;3.55;;;;;;;4.57;68.57;99324.69;4469671;32;33988;-69
2022/04/10 01:51:39;;;;;;;3.75;2.92;;;;;;;5.31;66.13;99326.41;4469350;32;33377;-66
2022/04/10 01:54:07;;;;;;;4.72;3.20;;;;;;;4.83;67.77;99328.97;4469548;32;34096;-66
2022/04/10 01:56:34;;;;;;;3.95;2.80;;;;;;;5.05;66.65;99316.75;4469329;32;34287;-65
2022/04/10 01:59:02;;;;;;;4.50;3.08;;;;;;;5.11;66.53;99321.22;4469605;32;33670;-65
2022/04/10 02:01:29;;;;;;;4.95;2.92;;;;;;;4.98;66.85;99320.56;4469433;32;34274;-65
2022/04/10 02:03:57;;;;;;;5.30;3.53;;;;;;;4.89;67.82;99326.22;4469117;32;33596;-66
2022/04/10 02:06:25;;;;;;;4.20;3.30;;;;;;;5.07;67.46;99325.41;4482831;32;34926;-69
2022/04/10 02:08:52;;;;;;;4.87;3.30;;;;;;;4.68;67.15;99324.75;4484729;32;34008;-70
2022/04/10 02:11:21;;;;;;;4.90;3.47;;;;;;;4.91;67.02;99328.69;4485468;32;34290;-67
2022/04/10 02:13:48;;;;;;;4.50;3.12;;;;;;;5.30;65.86;99332.00;4484901;32;33911;-68
2022/04/10 02:16:18;;;;;;;5.22;3.15;;;;;;;5.32;65.95;99329.91;4485072;32;34048;-69
2022/04/10 02:18:46;;;;;;;4.20;2.90;;;;;;;5.30;65.59;99329.31;4485073;32;33963;-67
2022/04/10 02:21:14;;;;;;;3.83;2.95;;;;;;;4.99;66.98;99333.78;4485082;32;33555;-65
2022/04/10 02:23:43;;;;;;;4.15;3.17;;;;;;;5.27;65.81;99335.12;4484908;32;33988;-65
2022/04/10 02:26:11;;;;;;;5.65;3.17;;;;;;;5.12;66.51;99344.41;4485263;32;34254;-70
2022/04/10 02:28:39;;;;;;;4.00;3.00;;;;;;;5.62;64.50;99348.00;4484883;32;33936;-67
2022/04/10 02:31:07;;;;;;;4.18;2.90;;;;;;;5.05;66.47;99354.38;4484911;32;34276;-69
2022/04/10 02:33:37;;;;;;;5.05;3.25;;;;;;;5.13;66.33;99350.59;4484814;32;34039;-68
2022/04/10 02:36:05;;;;;;;4.07;3.10;;;;;;;4.84;67.00;99357.53;4484869;32;34833;-65
2022/04/10 02:38:34;;;;;;;6.12;3.17;;;;;;;4.67;68.45;99347.31;4485032;32;33869;-68
2022/04/10 02:41:01;;;;;;;5.25;3.17;;;;;;;5.02;66.59;99343.28;4485268;32;33248;-69
2022/04/10 02:43:29;;;;;;;4.40;2.80;;;;;;;4.96;66.92;99346.84;4484323;32;33770;-64
2022/04/10 02:45:57;;;;;;;5.37;3.22;;;;;;;4.80;67.94;99351.75;4485162;32;33885;-69
2022/04/10 02:48:24;;;;;;;5.57;3.10;;;;;;;4.73;68.23;99361.75;4484866;32;35292;-66
2022/04/10 02:50:52;;;;;;;6.70;3.75;;;;;;;4.88;67.20;99359.53;4483918;32;34362;-70
2022/04/10 02:53:20;;;;;;;4.68;3.30;;;;;;;4.51;68.14;99354.06;4484224;32;34034;-67
2022/04/10 02:55:49;;;;;;;5.05;3.37;;;;;;;4.65;67.81;99364.72;4484979;32;34298;-71
2022/04/10 02:58:35;;;;;;;6.03;3.55;;;;;;;4.63;67.62;99364.91;4484620;32;35491;-70
2022/04/10 03:01:22;;;;;;;4.32;3.17;;;;;;;4.37;69.32;99362.44;4484596;32;34785;-68
2022/04/10 03:04:08;;;;;;;4.93;3.50;;;;;;;4.59;68.49;99370.94;4484312;32;34667;-67
2022/04/10 03:06:54;;;;;;;5.93;3.53;;;;;;;4.79;67.53;99376.16;4484713;32;34898;-64
2022/04/10 03:09:40;;;;;;;4.55;3.10;;;;;;;4.91;67.08;99385.97;4484569;32;35509;-64
2022/04/10 03:12:27;;;;;;;6.37;3.55;;;;;;;4.69;67.23;99385.53;4484000;32;34146;-64
2022/04/10 03:15:13;;;;;;;4.28;3.20;;;;;;;4.66;67.82;99390.53;4484641;32;35328;-71
2022/04/10 03:18:01;;;;;;;5.18;3.45;;;;;;;4.63;67.83;99394.47;4484531;32;35985;-71
2022/04/10 03:20:47;;;;;;;4.75;3.35;;;;;;;4.99;67.11;99403.69;4484581;32;34065;-70
2022/04/10 03:23:33;;;;;;;5.12;3.33;;;;;;;4.38;68.64;99407.06;4483961;32;35108;-71
2022/04/10 03:26:19;;;;;;;4.47;3.40;;;;;;;4.61;67.74;99407.31;4484408;32;34672;-68
2022/04/10 03:29:05;;;;;;;4.43;3.12;;;;;;;4.75;67.60;99407.19;4484633;32;34982;-66
2022/04/10 03:31:51;;;;;;;4.78;3.40;;;;;;;4.49;68.53;99414.41;4484090;32;34336;-64
2022/04/10 03:34:38;;;;;;;5.37;3.30;;;;;;;4.38;68.95;99417.78;4484213;32;34027;-65
2022/04/10 03:37:23;;;;;;;7.15;3.80;;;;;;;4.09;70.23;99422.72;4484438;32;35241;-65
2022/04/10 03:40:10;;;;;;;4.65;3.30;;;;;;;4.56;68.18;99425.09;4484381;32;34677;-64
2022/04/10 03:43:02;;;;;;;4.68;3.28;;;;;;;3.59;71.46;99427.88;4483946;32;34535;-71
2022/04/10 03:45:49;;;;;;;4.20;3.10;;;;;;;4.10;70.41;99432.41;4484286;32;35014;-65
2022/04/10 03:48:35;;;;;;;4.50;3.37;;;;;;;4.70;67.94;99438.22;4484035;32;34271;-69
2022/04/10 03:51:21;;;;;;;5.32;3.70;;;;;;;4.25;69.55;99440.19;4484292;32;34980;-62
2022/04/10 03:54:07;;;;;;;4.90;3.75;;;;;;;4.35;69.08;99440.53;4483932;32;35407;-70
2022/04/10 03:56:54;;;;;;;7.05;3.80;;;;;;;3.97;70.72;99438.66;4484359;32;34950;-65
2022/04/10 03:59:40;;;;;;;4.78;3.50;;;;;;;4.25;69.93;99438.31;4484324;32;34666;-71
2022/04/10 04:02:26;;;;;;;5.70;3.55;;;;;;;4.15;69.59;99446.03;4483442;32;34992;-65
2022/04/10 04:05:13;;;;;;;8.75;3.70;;;;;;;3.98;69.99;99450.25;4483684;32;34550;-71
2022/04/10 04:07:58;;;;;;;5.30;3.87;;;;;;;3.27;72.50;99452.69;4484016;32;35057;-70
2022/04/10 04:10:45;;;;;;;5.70;3.78;;;;;;;4.46;69.23;99452.47;4483871;32;35534;-71
2022/04/10 04:13:33;;;;;;;5.07;3.70;;;;;;;3.90;71.16;99456.66;4483542;32;34852;-68
2022/04/10 04:16:20;;;;;;;6.78;3.83;;;;;;;4.30;69.99;99460.00;4483925;32;34577;-70
2022/04/10 04:19:06;;;;;;;5.80;3.70;;;;;;;4.26;69.05;99453.41;4483846;32;34213;-71
2022/04/10 04:21:53;;;;;;;5.80;3.65;;;;;;;4.57;67.66;99464.38;4471296;32;35514;-69
2022/04/10 04:24:39;;;;;;;4.65;3.17;;;;;;;4.70;67.66;99459.72;4483642;32;35876;-67
2022/04/10 04:27:25;;;;;;;6.50;3.95;;;;;;;4.18;69.87;99464.38;4483804;32;34628;-67
2022/04/10 04:30:11;;;;;;;5.07;3.55;;;;;;;4.18;69.76;99466.25;4483770;32;35128;-65
2022/04/10 04:32:58;;;;;;;6.18;3.90;;;;;;;4.31;70.09;99468.88;4483110;32;34684;-69
2022/04/10 04:35:44;;;;;;;5.35;3.53;;;;;;;4.68;69.14;99471.75;4483542;32;35942;-65
2022/04/10 04:38:30;;;;;;;5.97;3.97;;;;;;;4.84;68.46;99476.59;4483573;32;35474;-67
2022/04/10 04:41:16;;;;;;;6.40;3.67;;;;;;;4.50;69.77;99489.41;4483437;32;34232;-64
2022/04/10 04:44:03;;;;;;;5.65;4.00;;;;;;;4.56;69.63;99485.06;4483408;32;35522;-71
2022/04/10 04:46:50;;;;;;;6.18;3.95;;;;;;;4.75;69.19;99483.25;4483383;32;35930;-68
2022/04/10 04:49:37;;;;;;;5.40;3.35;;;;;;;5.09;67.82;99489.22;4483599;32;34582;-65
2022/04/10 04:52:23;;;;;;;6.30;3.70;;;;;;;5.80;66.20;99482.53;4482702;32;34126;-66
2022/04/10 04:55:09;;;;;;;5.10;3.50;;;;;;;6.63;62.88;99486.53;4477159;31;34507;-70
2022/04/10 04:57:56;;;;;;;4.32;3.20;;;;;;;7.75;59.42;99495.66;4499075;31;35007;-67
2022/04/10 05:00:42;;;;;;;4.37;3.17;;;;;;;8.74;56.09;99495.50;4490778;31;35008;-68
2022/04/10 05:03:29;;;;;;;5.30;3.12;;;;;;;9.01;54.01;99509.25;4482609;32;34211;-67
2022/04/10 05:06:15;;;;;;;4.12;2.97;;;;;;;9.55;52.43;99500.66;4482919;32;34633;-68
2022/04/10 05:09:02;;;;;;;5.18;3.00;;;;;;;9.75;51.90;99515.56;4483055;32;34921;-68
2022/04/10 05:11:48;;;;;;;4.53;2.85;;;;;;;10.64;48.76;99517.22;4473987;32;35321;-65
2022/04/10 05:14:34;;;;;;;4.07;3.00;;;;;;;9.65;52.30;99511.63;4485051;32;34222;-67
2022/04/10 05:17:20;;;;;;;3.75;2.70;;;;;;;10.21;50.40;99519.69;4484809;32;34395;-65
2022/04/10 05:20:07;;;;;;;4.78;3.45;;;;;;;9.18;52.80;99520.09;4485301;32;35037;-65
2022/04/10 05:22:55;;;;;;;4.12;2.90;;;;;;;9.23;52.75;99522.88;4485135;32;34203;-66
2022/04/10 05:25:43;;;;;;;4.40;3.25;;;;;;;9.75;51.06;99524.50;4485143;32;33832;-65
2022/04/10 05:28:30;;;;;;;4.25;3.12;;;;;;;9.33;52.86;99524.09;4485244;32;35482;-66
2022/04/10 05:31:16;;;;;;;5.68;3.22;;;;;;;9.04;52.77;99524.19;4485380;32;35916;-66
2022/04/10 05:34:03;;;;;;;6.45;3.50;;;;;;;9.77;50.49;99529.66;4484845;32;34514;-66
2022/04/10 05:36:50;;;;;;;4.25;2.92;;;;;;;10.07;50.36;99537.41;4485216;32;34204;-64
2022/04/10 05:39:39;;;;;;;4.50;3.20;;;;;;;9.52;52.09;99546.34;4485268;32;35678;-65
2022/04/10 05:42:25;;;;;;;4.90;3.15;;;;;;;9.61;51.73;99544.84;4484629;32;34965;-64
2022/04/10 05:45:12;;;;;;;3.92;2.97;;;;;;;10.17;51.85;99548.41;4485362;32;35479;-66
2022/04/10 05:47:59;;;;;;;4.40;3.17;;;;;;;9.87;51.19;99546.09;4470422;32;34171;-68
2022/04/10 05:50:45;;;;;;;4.80;2.87;;;;;;;10.32;50.28;99547.78;4480650;32;35565;-66
2022/04/10 05:53:31;;;;;;;3.40;2.62;;;;;;;10.65;49.19;99551.44;4480127;32;35968;-70
2022/04/10 05:56:17;;;;;;;4.12;2.90;;;;;;;11.12;47.95;99553.53;4474938;32;34537;-72
2022/04/10 05:59:05;;;;;;;4.50;3.37;;;;;;;11.03;48.85;99555.09;4483155;32;34046;-67
2022/04/10 06:01:53;;;;;;;4.93;3.58;;;;;;;10.70;48.36;99550.69;4480414;32;34690;-70
2022/04/10 06:04:39;;;;;;;3.80;2.90;;;;;;;11.29;47.62;99573.28;4483860;32;35624;-70
2022/04/10 06:07:26;;;;;;;4.45;3.03;;;;;;;10.58;49.86;99561.66;4483956;32;35099;-65
2022/04/10 06:10:12;;;;;;;4.85;3.20;;;;;;;9.93;51.26;99565.94;4484756;32;34210;-70
2022/04/10 06:13:11;;;;;;;5.30;3.12;;;;;;;10.82;50.23;99573.87;4479141;32;35514;-66
2022/04/10 06:15:44;;;;;;;4.20;3.10;;;;;;;12.17;47.03;99571.22;4468502;32;34957;-70
2022/04/10 06:18:12;;;;;;;4.22;3.17;;;;;;;13.14;43.60;99574.28;4469176;32;33709;-72
2022/04/10 06:20:39;;;;;;;3.92;3.33;;;;;;;12.26;44.74;99572.34;4469312;32;33513;-67
2022/04/10 06:23:08;;;;;;;4.87;3.17;;;;;;;12.02;45.53;99575.47;4468755;32;33818;-70
2022/04/10 06:25:37;;;;;;;5.35;3.05;;;;;;;12.59;44.59;99578.47;4467667;32;33845;-75
2022/04/10 06:28:05;;;;;;;3.70;2.80;;;;;;;11.00;46.29;99570.00;4469205;32;33514;-69
2022/04/10 06:30:35;;;;;;;3.47;2.70;;;;;;;12.28;45.26;99584.59;4483500;32;33188;-71
2022/04/10 06:33:03;;;;;;;4.05;2.55;;;;;;;13.98;42.53;99585.78;4482997;32;33896;-69
2022/04/10 06:35:32;;;;;;;4.05;2.90;;;;;;;13.68;41.96;99592.88;4481885;32;33847;-68
2022/04/10 06:38:01;;;;;;;3.58;2.85;;;;;;;13.74;42.83;99597.25;4484782;32;33917;-67
2022/04/10 06:40:28;;;;;;;3.70;3.00;;;;;;;12.30;44.99;99606.09;4484151;32;33183;-68
2022/04/10 06:42:56;;;;;;;3.97;3.08;;;;;;;12.73;43.94;99601.41;4480112;32;34923;-71
2022/04/10 06:45:28;;;;;;;3.72;2.87;;;;;;;11.69;45.02;99601.03;4482007;31;32573;-69
2022/04/10 06:47:57;;;;;;;5.05;3.47;;;;;;;12.42;45.09;99606.72;4485043;32;34064;-68
2022/04/10 06:50:25;;;;;;;3.80;3.05;;;;;;;13.46;41.38;99606.78;4485061;32;33189;-70
2022/04/10 06:52:53;;;;;;;4.05;2.92;;;;;;;13.24;43.00;99604.28;4482748;32;33783;-74
2022/04/10 06:55:20;;;;;;;4.47;3.17;;;;;;;13.52;41.94;99619.31;4480737;32;33455;-69
2022/04/10 06:57:48;;;;;;;5.68;3.00;;;;;;;13.23;42.99;99610.00;4477376;32;34594;-74
2022/04/10 07:00:16;;;;;;;3.62;2.55;;;;;;;13.33;42.17;99610.03;4477772;32;34153;-68
2022/04/10 07:02:45;;;;;;;4.25;3.03;;;;;;;13.60;43.29;99617.94;4467372;32;33761;-71
2022/04/10 07:05:13;;;;;;;3.87;2.72;;;;;;;13.39;42.60;99617.12;4474603;32;34263;-70
2022/04/10 07:07:41;;;;;;;4.22;2.92;;;;;;;13.48;42.95;99631.03;4473022;32;33853;-69
2022/04/10 07:10:09;;;;;;;4.78;2.90;;;;;;;13.67;41.76;99623.12;4474259;32;33533;-70
2022/04/10 07:12:36;;;;;;;3.30;2.42;;;;;;;14.93;40.86;99619.63;4471330;32;33911;-70
2022/04/10 07:15:04;;;;;;;4.18;3.03;;;;;;;14.09;42.37;99620.13;4470146;32;34269;-68
2022/04/10 07:17:32;;;;;;;4.65;2.92;;;;;;;13.99;42.31;99622.03;4479592;32;34592;-69
2022/04/10 07:20:00;;;;;;;3.78;2.87;;;;;;;13.64;40.92;99624.50;4481893;32;33383;-68
2022/04/10 07:25:16;;;;;;;3.25;2.47;;;;;;;12.43;45.96;99637.47;4482709;32;34195;-70
2022/04/10 07:27:44;;;;;;;5.32;3.05;;;;;;;13.37;43.90;99640.28;4479505;32;33608;-67
2022/04/10 07:30:12;;;;;;;4.50;3.20;;;;;;;14.19;42.25;99635.66;4475763;32;32503;-67
2022/04/10 07:32:40;;;;;;;4.18;2.80;;;;;;;13.22;42.72;99641.06;4478142;32;34006;-66
2022/04/10 07:35:09;;;;;;;3.55;2.95;;;;;;;12.19;46.11;99642.50;4476076;32;34048;-67
2022/04/10 07:37:37;;;;;;;3.90;2.70;;;;;;;13.02;43.54;99647.25;4479958;32;34015;-66
2022/04/10 07:40:05;;;;;;;4.00;2.87;;;;;;;12.61;46.81;99658.81;4484224;32;34313;-67
2022/04/10 07:42:38;;;;;;;5.07;3.10;;;;;;;12.38;45.89;99648.31;4482344;32;33649;-67
2022/04/10 07:45:07;;;;;;;5.05;3.10;;;;;;;13.07;46.86;99655.44;4482099;32;34215;-69
2022/04/10 07:47:38;;;;;;;4.05;2.80;;;;;;;12.28;45.56;99647.16;4469936;32;33898;-67
2022/04/10 07:50:05;;;;;;;4.55;3.17;;;;;;;14.17;45.20;99662.41;4475897;32;34392;-67
2022/04/10 07:52:33;;;;;;;4.00;2.90;;;;;;;15.17;41.62;99647.91;4483468;32;33967;-67
2022/04/10 07:55:01;;;;;;;3.70;2.75;;;;;;;15.53;41.13;99655.06;4483800;32;33633;-67
2022/04/10 07:57:28;;;;;;;3.17;2.53;;;;;;;15.62;40.19;99661.56;4484091;32;33694;-66
2022/04/10 07:59:56;;;;;;;3.15;2.65;;;;;;;15.69;39.76;99658.50;4483463;32;33631;-67
2022/04/10 08:02:25;;;;;;;4.95;2.95;;;;;;;15.30;41.08;99662.03;4483626;32;34662;-67
2022/04/10 08:04:53;;;;;;;5.70;2.97;;;;;;;15.26;41.74;99675.44;4483618;32;34293;-67
2022/04/10 08:07:20;;;;;;;3.25;2.47;;;;;;;16.10;39.27;99680.91;4484108;32;33922;-67
2022/04/10 08:09:49;;;;;;;4.97;2.83;;;;;;;14.83;40.35;99675.09;4484123;32;33375;-67
2022/04/10 08:12:17;;;;;;;3.75;2.90;;;;;;;13.23;43.51;99678.91;4482708;32;34722;-67
2022/04/10 08:14:44;;;;;;;3.97;3.10;;;;;;;14.96;41.40;99684.59;4475063;32;34065;-67
2022/04/10 08:17:12;;;;;;;4.43;2.97;;;;;;;13.08;43.97;99679.66;4475883;32;33900;-68
2022/04/10 08:19:40;;;;;;;3.67;2.95;;;;;;;12.90;44.12;99677.44;4468722;32;33121;-67
2022/04/10 08:22:07;;;;;;;4.43;3.10;;;;;;;11.87;47.79;99675.94;4480753;32;34690;-67
2022/04/10 08:24:34;;;;;;;5.28;2.80;;;;;;;12.81;47.20;99682.56;4481826;32;33800;-68
2022/04/10 08:27:03;;;;;;;4.20;3.00;;;;;;;12.17;44.44;99680.00;4480387;32;33789;-66
2022/04/10 08:29:31;;;;;;;3.65;2.60;;;;;;;12.70;45.98;99675.44;4471069;32;33567;-65
2022/04/10 08:31:58;;;;;;;3.87;2.75;;;;;;;12.42;45.31;99680.19;4468125;32;33797;-66
2022/04/10 08:34:26;;;;;;;3.15;2.55;;;;;;;12.95;43.94;99679.34;4475005;32;35161;-66
2022/04/10 08:36:53;;;;;;;2.40;2.08;;;;;;;13.10;42.44;99682.13;4483722;32;33956;-66
2022/04/10 08:39:21;;;;;;;3.20;2.40;;;;;;;13.79;42.05;99683.69;4468708;32;33444;-68
2022/04/10 08:41:50;;;;;;;3.37;2.40;;;;;;;13.05;42.80;99676.69;4467369;32;33898;-69
2022/04/10 08:44:18;;;;;;;3.58;2.53;;;;;;;13.55;42.87;99683.38;4467303;32;35059;-67
2022/04/10 08:46:48;;;;;;;3.45;2.25;;;;;;;13.47;42.69;99689.34;4466251;32;33683;-68
2022/04/10 08:49:16;;;;;;;3.45;2.28;;;;;;;13.41;42.50;99693.16;4468249;32;34339;-69
2022/04/10 08:51:45;;;;;;;2.78;2.20;;;;;;;13.13;43.19;99687.87;4470510;32;33829;-71
2022/04/10 08:54:13;;;;;;;2.92;2.10;;;;;;;13.09;43.25;99697.66;4483990;32;34277;-68
2022/04/10 08:56:41;;;;;;;3.05;2.30;;;;;;;13.31;39.20;99702.94;4484226;32;33792;-69
2022/04/10 08:59:08;;;;;;;2.72;2.12;;;;;;;13.30;41.10;99693.16;4484881;32;34231;-67
2022/04/10 09:01:36;;;;;;;3.75;2.45;;;;;;;11.27;42.64;99677.78;4485044;32;33885;-67
2022/04/10 09:04:04;;;;;;;3.37;2.40;;;;;;;11.64;45.46;99687.94;4485171;32;34437;-68
2022/04/10 09:06:40;;;;;;;3.35;2.40;;;;;;;12.17;44.20;99697.13;4477192;32;34128;-70
2022/04/10 09:09:12;;;;;;;2.97;2.45;;;;;;;11.55;45.88;99700.38;4481578;32;33250;-70
2022/04/10 09:11:40;;;;;;;2.83;2.20;;;;;;;12.20;43.20;99691.19;4477245;32;34001;-68
2022/04/10 09:14:07;;;;;;;3.25;2.37;;;;;;;12.91;43.35;99712.59;4473868;31;33071;-69
2022/04/10 09:16:35;;;;;;;2.90;2.20;;;;;;;11.73;46.87;99704.59;4485045;32;34178;-69
2022/04/10 09:19:08;;;;;;;3.47;2.90;;;;;;;11.30;45.63;99688.16;4484423;32;34090;-68
2022/04/10 09:21:38;;;;;;;4.72;2.67;;;;;;;10.16;45.66;99695.84;4473359;32;34003;-66
2022/04/10 09:24:06;;;;;;;4.05;2.37;;;;;;;9.90;47.57;99702.75;4484670;32;34434;-65
2022/04/10 09:26:45;;;;;;;3.40;2.30;;;;;;;10.21;47.34;99681.56;4483327;32;33546;-68
2022/04/10 09:29:14;;;;;;;3.50;2.70;;;;;;;11.20;46.79;99691.56;4468396;32;33594;-67
2022/04/10 09:31:42;;;;;;;2.85;2.37;;;;;;;11.17;46.39;99697.53;4471838;32;33653;-67
2022/04/10 09:34:14;;;;;;;3.58;2.28;;;;;;;11.97;44.79;99697.81;4476773;32;34956;-65
2022/04/10 09:36:47;;;;;;;2.60;1.90;;;;;;;12.24;43.96;99705.06;4484822;32;34553;-67
2022/04/10 09:39:33;;;;;;;3.30;2.33;;;;;;;12.56;43.70;99701.50;4484918;32;33370;-67
2022/04/10 09:42:09;;;;;;;3.00;2.10;;;;;;;12.35;44.02;99720.38;4483632;32;34685;-68
2022/04/10 09:44:56;;;;;;;2.58;2.10;;;;;;;10.86;45.04;99704.47;4473812;32;35032;-69
2022/04/10 09:47:27;;;;;;;3.10;2.28;;;;;;;11.06;44.40;99712.88;4468664;32;34449;-68
2022/04/10 09:50:04;;;;;;;2.67;1.85;;;;;;;11.81;44.58;99717.75;4468954;32;33236;-68
2022/04/10 09:52:35;;;;;;;3.28;2.30;;;;;;;10.61;42.59;99713.09;4467614;32;33961;-69
2022/04/10 09:55:04;;;;;;;4.45;2.00;;;;;;;10.19;43.80;99705.38;4471821;32;34718;-68
2022/04/10 09:57:34;;;;;;;3.78;2.45;;;;;;;10.37;45.26;99696.22;4484783;32;34108;-69
2022/04/10 10:00:03;;;;;;;3.25;2.42;;;;;;;11.33;47.84;99692.25;4482559;32;34253;-70
2022/04/10 10:02:38;;;;;;;3.17;2.20;;;;;;;11.35;44.67;99707.22;4475394;32;34011;-68
2022/04/10 10:05:07;;;;;;;4.10;2.08;;;;;;;11.73;45.53;99708.16;4467618;32;33764;-68
2022/04/10 10:07:36;;;;;;;4.78;2.60;;;;;;;11.07;44.17;99705.53;4468380;32;33460;-69
2022/04/10 10:10:03;;;;;;;2.58;1.95;;;;;;;11.72;45.94;99709.22;4468675;32;33441;-68
2022/04/10 10:12:31;;;;;;;3.05;1.95;;;;;;;11.62;42.20;99699.09;4475544;32;34011;-67
2022/04/10 10:14:59;;;;;;;3.33;1.92;;;;;;;11.81;42.34;99693.28;4479991;32;35065;-67
2022/04/10 10:17:26;;;;;;;2.12;1.90;;;;;;;11.62;44.92;99706.41;4468556;32;33751;-68
2022/04/10 10:19:53;;;;;;;7.22;3.40;;;;;;;12.20;42.78;99704.78;4468146;32;33888;-69
2022/04/10 10:22:21;;;;;;;3.17;2.25;;;;;;;11.81;43.27;99712.31;4467351;32;33801;-71
2022/04/10 10:25:08;;;;;;;2.95;2.33;;;;;;;12.15;44.09;99707.47;4470304;32;34077;-68
2022/04/10 10:28:08;;;;;;;3.37;2.12;;;;;;;11.50;43.27;99709.28;4480589;32;33792;-67
2022/04/10 10:30:39;;;;;;;4.25;2.20;;;;;;;10.89;44.58;99703.97;4456747;32;34513;-68
2022/04/10 10:33:23;;;;;;;3.70;2.35;;;;;;;11.65;44.28;99706.72;4477134;32;33565;-68
2022/04/10 10:35:52;;;;;;;4.22;2.28;;;;;;;11.49;44.53;99711.19;4484699;32;34936;-71
2022/04/10 10:38:23;;;;;;;2.28;2.08;;;;;;;11.90;45.56;99716.25;4482892;32;33770;-68
2022/04/10 10:41:14;;;;;;;3.80;2.25;;;;;;;11.09;45.56;99701.50;4481882;32;33568;-67
2022/04/10 10:43:42;;;;;;;4.50;2.60;;;;;;;11.46;46.14;99711.69;4479996;31;33916;-66
2022/04/10 10:46:23;;;;;;;2.70;2.22;;;;;;;11.84;45.78;99725.41;4469995;32;34274;-67
2022/04/10 10:49:20;;;;;;;2.10;1.85;;;;;;;12.76;43.42;99701.59;4476242;32;35278;-67
2022/04/10 10:51:48;;;;;;;3.45;2.30;;;;;;;12.82;41.26;99710.63;4480052;32;33483;-67
2022/04/10 10:54:25;;;;;;;2.50;1.95;;;;;;;12.38;41.29;99700.03;4482511;32;34785;-65
2022/04/10 10:56:53;;;;;;;2.83;2.17;;;;;;;11.77;43.32;99712.00;4483433;32;34225;-65
2022/04/10 10:59:34;;;;;;;2.75;2.15;;;;;;;12.05;43.34;99708.22;4479955;32;34732;-66
2022/04/10 11:02:13;;;;;;;2.65;2.00;;;;;;;11.13;43.92;99703.72;4483078;32;33168;-67
2022/04/10 11:05:05;;;;;;;2.85;2.17;;;;;;;10.90;44.14;99697.47;4478684;32;33560;-66
2022/04/10 11:07:38;;;;;;;3.28;2.80;;;;;;;11.56;43.86;99702.84;4483739;32;34271;-67
2022/04/10 11:10:09;;;;;;;3.90;1.80;;;;;;;11.67;45.00;99703.75;4483556;32;33889;-67
2022/04/10 11:12:51;;;;;;;2.67;1.83;;;;;;;12.00;42.96;99704.63;4482633;32;34155;-68
2022/04/10 11:15:23;;;;;;;2.00;1.80;;;;;;;12.27;41.86;99710.81;4480576;32;34571;-69
2022/04/10 11:17:52;;;;;;;4.37;1.80;;;;;;;11.41;41.36;99702.69;4483293;32;35044;-68
2022/04/10 11:20:21;;;;;;;2.45;1.60;;;;;;;11.92;41.25;99703.19;4482917;32;33482;-70
2022/04/10 11:22:52;;;;;;;2.65;1.80;;;;;;;11.66;42.75;99699.38;4482088;32;33478;-69
2022/04/10 11:25:31;;;;;;;2.60;1.60;;;;;;;12.77;39.59;99703.25;4484397;32;34740;-67
2022/04/10 11:28:04;;;;;;;1.55;1.37;;;;;;;11.90;39.98;99699.94;4484010;32;35115;-68
2022/04/10 11:30:41;;;;;;;1.87;1.33;;;;;;;12.16;39.63;99697.38;4484284;32;34836;-69
2022/04/10 11:33:11;;;;;;;1.73;1.30;;;;;;;11.43;38.12;99695.09;4484249;32;33559;-67
2022/04/10 11:35:46;;;;;;;1.50;1.23;;;;;;;11.43;39.10;99698.63;4480753;32;33690;-65
2022/04/10 11:38:18;;;;;;;2.58;1.20;;;;;;;12.11;39.32;99690.00;4475903;32;34434;-66
2022/04/10 11:40:47;;;;;;;1.67;1.37;;;;;;;12.22;39.39;99691.72;4484231;32;34644;-67
2022/04/10 11:43:17;;;;;;;1.60;1.40;;;;;;;12.28;39.43;99690.69;4484215;32;33307;-67
2022/04/10 11:45:48;;;;;;;1.20;1.10;;;;;;;11.91;37.80;99696.13;4483988;32;33886;-67
2022/04/10 11:48:16;;;;;;;1.40;1.20;;;;;;;12.39;39.14;99696.22;4483070;32;34181;-67
2022/04/10 11:50:44;;;;;;;2.53;1.05;;;;;;;11.61;37.35;99685.75;4472103;32;33948;-67
2022/04/10 11:53:18;;;;;;;2.78;1.30;;;;;;;11.56;36.97;99685.72;4468360;32;33473;-68
2022/04/10 11:55:46;;;;;;;1.73;1.23;;;;;;;12.06;37.38;99696.25;4468718;32;34083;-68
2022/04/10 11:58:21;;;;;;;2.20;1.45;;;;;;;11.29;36.61;99691.94;4468515;32;35067;-68
2022/04/10 12:00:50;;;;;;;1.67;1.10;;;;;;;12.22;37.34;99708.03;4469277;32;34251;-69
2022/04/10 12:03:22;;;;;;;3.30;1.50;;;;;;;12.96;37.88;99714.50;4467983;32;33507;-67
2022/04/10 12:05:51;;;;;;;1.60;1.10;;;;;;;12.12;38.69;99708.00;4467075;32;33944;-68
2022/04/10 12:08:20;;;;;;;1.40;1.30;;;;;;;11.95;37.62;99699.16;4471916;31;34096;-67
2022/04/10 12:10:58;;;;;;;2.00;1.40;;;;;;;12.14;38.42;99705.84;4481790;32;33953;-68